createdAt,value
2023-03-12T00:41:35.873Z,0.00
2023-03-12T00:53:50.972Z,-0.30
2023-03-12T01:25:44.575Z,0.00
2023-03-12T01:35:36.962Z,0.10
2023-03-12T01:38:03.844Z,0.00
2023-03-12T01:40:33.531Z,0.10
2023-03-12T01:43:24.870Z,0.10
2023-03-12T01:46:16.085Z,0.00
2023-03-12T01:48:47.430Z,0.10
2023-03-12T01:51:15.985Z,0.00
2023-03-12T01:53:47.095Z,0.00
2023-03-12T01:56:16.341Z,0.00
2023-03-12T01:58:47.837Z,0.00
2023-03-12T02:01:17.134Z,0.00
2023-03-12T02:03:47.676Z,0.00
2023-03-12T02:06:15.869Z,0.00
2023-03-12T02:08:45.608Z,0.00
2023-03-12T02:16:08.745Z,0.00
2023-03-12T02:21:19.945Z,0.00
2023-03-12T02:24:08.488Z,0.00
2023-03-12T02:26:38.067Z,-0.20
2023-03-12T02:29:06.224Z,0.00
2023-03-12T02:31:44.854Z,0.00
2023-03-12T02:36:39.776Z,0.00
2023-03-12T02:39:06.410Z,0.00
2023-03-12T02:41:38.234Z,0.10
2023-03-12T02:46:47.989Z,0.10
2023-03-12T02:49:16.094Z,0.10
2023-03-12T02:51:44.819Z,0.10
2023-03-12T02:54:13.035Z,0.10
2023-03-12T02:56:40.516Z,0.10
2023-03-12T02:59:09.168Z,0.10
2023-03-12T03:04:08.294Z,0.10
2023-03-12T03:06:37.336Z,0.30
2023-03-12T03:16:30.951Z,0.20
2023-03-12T03:26:22.722Z,0.10
2023-03-12T03:28:49.921Z,0.30
2023-03-12T03:31:17.551Z,0.40
2023-03-12T03:33:45.220Z,0.40
2023-03-12T03:41:20.810Z,0.30
2023-03-12T03:43:47.942Z,0.40
2023-03-12T03:56:16.603Z,0.30
2023-03-12T04:06:11.984Z,0.50
2023-03-12T04:08:40.161Z,0.60
2023-03-12T04:11:14.727Z,0.50
2023-03-12T04:16:10.119Z,0.60
2023-03-12T04:21:07.335Z,0.60
2023-03-12T04:26:03.046Z,0.60
2023-03-12T04:28:30.335Z,0.60
2023-03-12T04:30:59.794Z,0.60
2023-03-12T04:33:29.236Z,0.60
2023-03-12T04:35:57.075Z,0.60
2023-03-12T04:38:25.339Z,0.60
2023-03-12T04:41:00.117Z,0.70
2023-03-12T04:43:27.733Z,0.70
2023-03-12T04:45:55.064Z,0.80
2023-03-12T04:50:51.381Z,0.80
2023-03-12T04:53:19.044Z,0.80
2023-03-12T05:10:34.403Z,1.00
2023-03-12T05:22:49.645Z,1.00
2023-03-12T05:35:07.174Z,1.10
2023-03-12T05:44:57.447Z,1.10
2023-03-12T05:49:52.123Z,1.10
2023-03-12T06:16:52.670Z,1.30
2023-03-12T06:21:48.659Z,1.40
2023-03-12T06:36:38.171Z,1.70
2023-03-12T06:46:33.036Z,1.80
2023-03-12T06:51:26.728Z,1.90
2023-03-12T07:06:18.512Z,2.00
2023-03-12T07:11:13.544Z,2.10
2023-03-12T07:13:40.997Z,2.20
2023-03-12T07:16:08.164Z,2.30
2023-03-12T07:33:19.660Z,2.60
2023-03-12T07:35:50.212Z,2.60
2023-03-12T07:45:41.479Z,2.80
2023-03-12T07:50:36.651Z,2.90
2023-03-12T07:53:04.582Z,2.90
2023-03-12T07:55:32.735Z,3.00
2023-03-12T08:00:28.121Z,3.00
2023-03-12T08:05:24.750Z,3.00
2023-03-12T08:07:52.621Z,3.10
2023-03-12T08:10:21.026Z,3.20
2023-03-12T08:15:15.730Z,3.30
2023-03-12T08:17:42.512Z,3.30
2023-03-12T08:20:10.169Z,3.40
2023-03-12T08:25:04.878Z,3.40
2023-03-12T08:27:31.887Z,3.50
2023-03-12T08:42:13.936Z,3.70
2023-03-12T08:52:02.016Z,3.80
2023-03-12T08:59:23.377Z,3.90
2023-03-12T09:01:50.438Z,3.80
2023-03-12T09:21:48.957Z,4.00
2023-03-12T09:31:37.026Z,3.90
2023-03-12T09:34:04.966Z,3.90
2023-03-12T09:36:32.315Z,3.90
2023-03-12T09:38:59.138Z,3.90
2023-03-12T09:41:29.653Z,3.90
2023-03-12T09:44:01.820Z,3.90
2023-03-12T09:46:38.782Z,3.90
2023-03-12T09:49:38.407Z,3.80
2023-03-12T09:52:20.963Z,3.90
2023-03-12T09:54:57.189Z,3.80
2023-03-12T09:57:25.855Z,3.80
2023-03-12T10:02:42.804Z,3.70
2023-03-12T10:05:24.294Z,3.70
2023-03-12T10:07:58.298Z,3.70
2023-03-12T10:10:49.558Z,3.60
2023-03-12T10:13:43.772Z,3.50
2023-03-12T10:18:44.133Z,3.50
2023-03-12T10:21:56.018Z,3.50
2023-03-12T10:24:48.105Z,3.50
2023-03-12T10:27:16.954Z,3.60
2023-03-12T10:29:50.247Z,3.50
2023-03-12T10:32:28.458Z,1.80
2023-03-12T10:35:03.287Z,3.50
2023-03-12T10:37:49.971Z,3.50
2023-03-12T10:40:23.271Z,3.60
2023-03-12T10:42:50.536Z,3.70
2023-03-12T10:47:51.045Z,3.80
2023-03-12T10:50:20.085Z,3.90
2023-03-12T10:52:49.511Z,3.90
2023-03-12T10:57:43.157Z,3.70
2023-03-12T11:00:18.154Z,3.70
2023-03-12T11:05:43.747Z,3.60
2023-03-12T11:08:20.957Z,3.60
2023-03-12T11:13:25.778Z,3.60
2023-03-12T11:20:50.218Z,3.60
2023-03-12T11:23:30.196Z,3.60
2023-03-12T11:26:00.708Z,3.80
2023-03-12T11:28:40.507Z,3.70
2023-03-12T11:31:33.227Z,3.60
2023-03-12T11:34:06.391Z,3.70
2023-03-12T11:36:46.598Z,3.60
2023-03-12T11:39:25.309Z,3.60
2023-03-12T11:42:11.173Z,3.60
2023-03-12T11:45:03.970Z,3.70
2023-03-12T11:47:33.730Z,3.60
2023-03-12T11:50:21.186Z,3.60
2023-03-12T11:55:19.504Z,3.70
2023-03-12T11:57:54.727Z,3.70
2023-03-12T12:00:32.509Z,3.70
2023-03-12T12:03:31.238Z,3.70
2023-03-12T12:06:06.857Z,3.80
2023-03-12T12:09:18.332Z,3.80
2023-03-12T12:12:09.038Z,3.90
2023-03-12T12:15:14.214Z,4.00
2023-03-12T12:17:56.575Z,4.10
2023-03-12T12:23:33.883Z,4.20
2023-03-12T12:28:44.886Z,4.20
2023-03-12T12:31:49.306Z,4.30
2023-03-12T12:34:36.875Z,4.40
2023-03-12T12:37:42.243Z,4.40
2023-03-12T12:40:37.329Z,4.50
2023-03-12T12:43:27.935Z,4.50
2023-03-12T12:45:59.267Z,4.60
2023-03-12T12:48:53.328Z,4.50
2023-03-12T12:51:22.907Z,4.70
2023-03-12T12:54:04.240Z,4.70
2023-03-12T12:56:42.280Z,4.70
2023-03-12T12:59:27.305Z,4.80
2023-03-12T13:01:55.752Z,4.80
2023-03-12T13:04:30.484Z,4.80
2023-03-12T13:07:12.076Z,5.00
2023-03-12T13:09:52.833Z,5.00
2023-03-12T13:12:25.584Z,5.10
2023-03-12T13:14:54.658Z,5.10
2023-03-12T13:17:35.697Z,5.20
2023-03-12T13:20:17.596Z,5.20
2023-03-12T13:23:09.389Z,5.30
2023-03-12T13:25:54.360Z,5.40
2023-03-12T13:28:30.070Z,5.40
2023-03-12T13:30:57.903Z,5.50
2023-03-12T13:33:41.414Z,5.60
2023-03-12T13:36:17.032Z,5.60
2023-03-12T13:39:17.588Z,5.70
2023-03-12T13:41:55.024Z,5.80
2023-03-12T13:44:27.518Z,5.90
2023-03-12T13:46:58.288Z,6.00
2023-03-12T13:49:26.094Z,6.00
2023-03-12T13:51:59.850Z,6.10
2023-03-12T13:54:33.594Z,6.20
2023-03-12T13:57:10.157Z,6.30
2023-03-12T13:59:43.821Z,6.40
2023-03-12T14:02:23.579Z,6.50
2023-03-12T14:04:50.648Z,6.60
2023-03-12T14:07:38.160Z,6.60
2023-03-12T14:10:19.457Z,6.70
2023-03-12T14:13:13.416Z,6.80
2023-03-12T14:15:56.246Z,6.90
2023-03-12T14:18:26.795Z,7.00
2023-03-12T14:20:58.223Z,7.00
2023-03-12T14:23:29.206Z,7.10
2023-03-12T14:26:03.982Z,7.20
2023-03-12T14:28:37.913Z,7.20
2023-03-12T14:31:17.066Z,7.30
2023-03-12T14:34:12.884Z,7.40
2023-03-12T14:36:46.487Z,7.40
2023-03-12T14:39:36.939Z,7.50
2023-03-12T14:42:08.232Z,7.50
2023-03-12T14:44:37.150Z,7.60
2023-03-12T14:47:12.738Z,7.70
2023-03-12T14:49:45.237Z,7.70
2023-03-12T14:52:23.948Z,7.70
2023-03-12T14:55:01.113Z,7.70
2023-03-12T14:57:28.413Z,7.80
2023-03-12T15:00:00.144Z,7.90
2023-03-12T15:02:30.028Z,8.00
2023-03-12T15:05:00.015Z,8.00
2023-03-12T15:07:34.316Z,8.10
2023-03-12T15:10:06.048Z,8.20
2023-03-12T15:12:36.683Z,8.30
2023-03-12T15:15:10.921Z,8.30
2023-03-12T15:17:37.895Z,8.40
2023-03-12T15:20:09.523Z,8.40
2023-03-12T15:22:37.182Z,8.50
2023-03-12T15:25:26.009Z,8.50
2023-03-12T15:28:11.406Z,8.50
2023-03-12T15:30:39.433Z,8.50
2023-03-12T15:35:33.457Z,8.60
2023-03-12T15:38:01.201Z,8.60
2023-03-12T15:40:29.946Z,8.60
2023-03-12T15:43:01.717Z,8.60
2023-03-12T15:45:37.866Z,8.70
2023-03-12T15:48:15.706Z,8.70
2023-03-12T15:50:44.611Z,8.70
2023-03-12T15:53:14.186Z,8.80
2023-03-12T15:55:43.873Z,8.80
2023-03-12T15:58:35.608Z,8.80
2023-03-12T16:01:12.599Z,8.80
2023-03-12T16:03:40.764Z,8.80
2023-03-12T16:06:17.045Z,8.80
2023-03-12T16:08:55.437Z,8.90
2023-03-12T16:11:30.663Z,8.90
2023-03-12T16:14:20.332Z,8.90
2023-03-12T16:19:17.212Z,8.90
2023-03-12T16:21:44.268Z,8.80
2023-03-12T16:24:11.536Z,8.80
2023-03-12T16:26:58.698Z,8.90
2023-03-12T16:29:45.703Z,8.90
2023-03-12T16:32:15.015Z,8.90
2023-03-12T16:34:42.850Z,8.80
2023-03-12T16:37:13.049Z,8.80
2023-03-12T16:42:15.325Z,8.90
2023-03-12T16:47:12.628Z,8.90
2023-03-12T16:49:39.817Z,8.80
2023-03-12T16:52:22.208Z,8.90
2023-03-12T16:54:49.879Z,8.90
2023-03-12T16:57:26.849Z,8.90
2023-03-12T16:59:54.071Z,8.80
2023-03-12T17:02:21.292Z,8.90
2023-03-12T17:04:49.134Z,8.90
2023-03-12T17:07:16.007Z,8.80
2023-03-12T17:09:43.052Z,8.90
2023-03-12T17:12:24.641Z,8.90
2023-03-12T17:14:51.720Z,8.90
2023-03-12T17:17:18.688Z,8.90
2023-03-12T17:22:12.407Z,9.00
2023-03-12T17:24:40.075Z,9.00
2023-03-12T17:29:33.797Z,9.10
2023-03-12T17:36:55.330Z,9.20
2023-03-12T17:39:23.875Z,9.20
2023-03-12T17:41:50.657Z,9.20
2023-03-12T17:44:17.691Z,9.20
2023-03-12T17:46:58.524Z,9.30
2023-03-12T17:49:25.693Z,9.40
2023-03-12T17:51:52.275Z,9.40
2023-03-12T17:54:18.936Z,9.40
2023-03-12T17:56:45.540Z,9.40
2023-03-12T17:59:12.148Z,9.40
2023-03-12T18:01:38.764Z,9.50
2023-03-12T18:04:05.507Z,9.60
2023-03-12T18:06:32.162Z,9.50
2023-03-12T18:11:25.863Z,9.50
2023-03-12T18:13:52.523Z,9.50
2023-03-12T18:16:19.167Z,9.50
2023-03-12T18:18:45.785Z,9.50
2023-03-12T18:21:12.365Z,9.50
2023-03-12T18:23:38.978Z,9.40
2023-03-12T18:26:05.735Z,9.30
2023-03-12T18:28:32.444Z,9.50
2023-03-12T18:30:59.147Z,9.50
2023-03-12T18:40:49.839Z,9.60
2023-03-12T18:43:16.587Z,9.60
2023-03-12T18:48:11.145Z,9.60
2023-03-12T18:50:37.713Z,9.60
2023-03-12T18:53:04.402Z,9.50
2023-03-12T18:55:32.064Z,9.60
2023-03-12T18:57:58.756Z,9.50
2023-03-12T19:00:25.396Z,9.60
2023-03-12T19:05:19.223Z,9.60
2023-03-12T19:07:45.849Z,9.60
2023-03-12T19:10:13.551Z,9.50
2023-03-12T19:15:21.138Z,9.60
2023-03-12T19:20:15.532Z,9.50
2023-03-12T19:22:42.161Z,9.60
2023-03-12T19:25:09.348Z,9.50
2023-03-12T19:27:35.977Z,9.50
2023-03-12T19:30:02.578Z,9.50
2023-03-12T19:32:42.057Z,9.50
2023-03-12T19:35:11.297Z,9.50
2023-03-12T19:37:37.937Z,9.50
2023-03-12T19:40:07.991Z,9.50
2023-03-12T19:42:34.586Z,9.50
2023-03-12T19:45:01.245Z,9.50
2023-03-12T19:47:28.069Z,9.50
2023-03-12T19:49:54.677Z,9.50
2023-03-12T19:52:21.507Z,9.50
2023-03-12T19:57:30.330Z,9.50
2023-03-12T19:59:57.009Z,9.50
2023-03-12T20:02:23.693Z,9.50
2023-03-12T20:04:50.936Z,9.50
2023-03-12T20:07:18.356Z,9.50
2023-03-12T20:09:44.973Z,9.40
2023-03-12T20:12:11.699Z,9.50
2023-03-12T20:14:39.064Z,9.40
2023-03-12T20:17:06.808Z,9.50
2023-03-12T20:19:33.696Z,9.50
2023-03-12T20:22:00.355Z,9.50
2023-03-12T20:24:26.978Z,9.40
2023-03-12T20:26:53.579Z,9.50
2023-03-12T20:29:20.226Z,9.60
2023-03-12T20:31:47.039Z,9.50
2023-03-12T20:34:13.834Z,9.50
2023-03-12T20:36:40.513Z,9.60
2023-03-12T20:39:07.145Z,9.50
2023-03-12T20:41:34.173Z,9.70
2023-03-12T20:44:01.430Z,9.60
2023-03-12T20:46:28.316Z,9.60
2023-03-12T20:48:56.768Z,9.60
2023-03-12T20:51:24.794Z,9.50
2023-03-12T20:56:18.446Z,9.50
2023-03-12T20:58:45.044Z,9.50
2023-03-12T21:01:11.768Z,9.60
2023-03-12T21:03:38.511Z,9.60
2023-03-12T21:06:05.452Z,9.60
2023-03-12T21:08:32.877Z,9.60
2023-03-12T21:10:59.855Z,10.10
2023-03-12T21:13:26.712Z,9.60
2023-03-12T21:15:53.380Z,9.60
2023-03-12T21:18:20.329Z,9.60
2023-03-12T21:20:47.169Z,9.60
2023-03-12T21:23:14.173Z,9.60
2023-03-12T21:25:42.057Z,9.60
2023-03-12T21:28:09.982Z,9.60
2023-03-12T21:30:37.281Z,9.60
2023-03-12T21:33:04.331Z,9.60
2023-03-12T21:35:31.072Z,9.60
2023-03-12T21:37:57.701Z,9.60
2023-03-12T21:42:51.525Z,9.70
2023-03-12T21:45:18.248Z,9.70
2023-03-12T21:50:12.055Z,9.70
2023-03-12T21:52:43.116Z,9.70
2023-03-12T21:55:10.355Z,9.60
2023-03-12T21:57:37.012Z,9.60
2023-03-12T22:00:04.966Z,9.60
2023-03-12T22:02:31.709Z,9.50
2023-03-12T22:05:01.248Z,9.60
2023-03-12T22:07:30.727Z,9.60
2023-03-12T22:09:57.330Z,9.60
2023-03-12T22:12:24.162Z,9.60
2023-03-12T22:14:50.770Z,9.60
2023-03-12T22:17:17.592Z,9.60
2023-03-12T22:19:44.300Z,9.60
2023-03-12T22:22:11.662Z,9.60
2023-03-12T22:24:38.317Z,9.60
2023-03-12T22:27:07.296Z,9.60
2023-03-12T22:29:34.755Z,9.50
2023-03-12T22:32:01.925Z,9.50
2023-03-12T22:34:29.704Z,9.50
2023-03-12T22:36:56.378Z,9.50
2023-03-12T22:39:23.106Z,9.50
2023-03-12T22:41:53.521Z,9.50
2023-03-12T22:44:20.347Z,9.50
2023-03-12T22:46:46.971Z,9.30
2023-03-12T22:49:15.042Z,9.50
2023-03-12T22:51:41.852Z,9.50
2023-03-12T22:54:08.468Z,9.50
2023-03-12T22:56:35.148Z,9.50
2023-03-12T22:59:01.905Z,9.50
2023-03-12T23:01:28.645Z,9.50
2023-03-12T23:03:55.268Z,9.50
2023-03-12T23:06:24.728Z,9.50
2023-03-12T23:08:52.415Z,9.50
2023-03-12T23:11:20.660Z,9.50
2023-03-12T23:16:18.831Z,9.60
2023-03-12T23:18:45.817Z,9.50
2023-03-12T23:21:18.777Z,9.50
2023-03-12T23:23:46.136Z,9.50
2023-03-12T23:26:16.700Z,9.50
2023-03-12T23:28:43.560Z,9.50
2023-03-12T23:31:10.723Z,9.50
2023-03-12T23:33:37.704Z,9.50
2023-03-12T23:36:10.678Z,9.50
2023-03-12T23:38:37.738Z,9.50
2023-03-12T23:41:11.956Z,9.50
2023-03-12T23:43:38.853Z,9.60
2023-03-12T23:46:07.283Z,8.50
2023-03-12T23:48:35.726Z,9.60
2023-03-12T23:51:19.835Z,9.50
2023-03-12T23:53:48.980Z,9.60
2023-03-12T23:56:18.859Z,9.60
2023-03-12T23:58:46.257Z,9.60
